createdAt,value
2022-09-30T00:01:29.187Z,99638.81
2022-09-30T00:04:30.591Z,99636.31
2022-09-30T00:07:31.986Z,99644.44
2022-09-30T00:10:33.372Z,99649.72
2022-09-30T00:13:38.393Z,99647.00
2022-09-30T00:16:39.847Z,99652.97
2022-09-30T00:19:41.268Z,99648.56
2022-09-30T00:22:42.648Z,99643.34
2022-09-30T00:25:44.050Z,99648.91
2022-09-30T00:28:49.026Z,99645.19
2022-09-30T00:31:50.426Z,99648.63
2022-09-30T00:34:52.023Z,99645.75
2022-09-30T00:37:55.092Z,99650.75
2022-09-30T00:40:56.895Z,99653.16
2022-09-30T00:43:58.545Z,99643.19
2022-09-30T00:46:59.981Z,99648.63
2022-09-30T00:50:12.149Z,99645.88
2022-09-30T00:53:18.915Z,99646.81
2022-09-30T00:56:24.757Z,99653.56
2022-09-30T00:59:31.252Z,99641.25
2022-09-30T01:02:33.070Z,99646.75
2022-09-30T01:05:36.099Z,99650.59
2022-09-30T01:08:40.392Z,99649.66
2022-09-30T01:11:41.794Z,99645.59
2022-09-30T01:14:48.424Z,99647.59
2022-09-30T01:18:18.933Z,99650.41
2022-09-30T01:21:38.512Z,99648.03
2022-09-30T01:25:09.614Z,99655.09
2022-09-30T01:28:32.210Z,99661.22
2022-09-30T01:32:03.287Z,99656.16
2022-09-30T01:35:30.168Z,99661.00
2022-09-30T01:39:02.403Z,99659.69
2022-09-30T01:42:31.513Z,99656.31
2022-09-30T01:45:44.873Z,99662.13
2022-09-30T01:48:59.055Z,99668.34
2022-09-30T01:52:03.137Z,99675.25
2022-09-30T01:55:17.360Z,99673.41
2022-09-30T01:58:36.816Z,99677.22
2022-09-30T02:01:44.032Z,99693.38
2022-09-30T02:04:52.156Z,99706.28
2022-09-30T02:08:00.936Z,99694.88
2022-09-30T02:11:12.024Z,99696.88
2022-09-30T02:14:25.765Z,99704.00
2022-09-30T02:17:33.011Z,99713.34
2022-09-30T02:20:40.708Z,99710.44
2022-09-30T02:23:46.914Z,99714.72
2022-09-30T02:26:49.590Z,99710.25
2022-09-30T02:29:57.098Z,99712.19
2022-09-30T02:33:10.738Z,99723.28
2022-09-30T02:36:21.234Z,99728.69
2022-09-30T02:39:27.837Z,99724.06
2022-09-30T02:42:30.978Z,99732.84
2022-09-30T02:45:46.139Z,99731.81
2022-09-30T02:49:13.794Z,99722.78
2022-09-30T02:52:41.967Z,99718.84
2022-09-30T02:56:05.318Z,99717.13
2022-09-30T02:59:06.766Z,99716.06
2022-09-30T03:02:08.250Z,99719.50
2022-09-30T03:05:10.707Z,99723.97
2022-09-30T03:08:12.156Z,99725.84
2022-09-30T03:11:34.788Z,99728.38
2022-09-30T03:14:55.940Z,99726.72
2022-09-30T03:18:22.512Z,99731.19
2022-09-30T03:21:37.495Z,99730.97
2022-09-30T03:24:41.975Z,99730.31
2022-09-30T03:27:51.796Z,99721.06
2022-09-30T03:31:12.153Z,99724.81
2022-09-30T03:34:20.418Z,99722.50
2022-09-30T03:37:46.612Z,99720.84
2022-09-30T03:41:06.560Z,99723.63
2022-09-30T03:44:17.205Z,99728.66
2022-09-30T03:47:21.468Z,99721.66
2022-09-30T03:50:25.710Z,99732.19
2022-09-30T03:53:28.481Z,99739.25
2022-09-30T03:56:31.582Z,99753.53
2022-09-30T03:59:33.003Z,99749.28
2022-09-30T04:02:36.658Z,99742.13
2022-09-30T04:05:38.059Z,99743.84
2022-09-30T04:08:39.510Z,99746.69
2022-09-30T04:11:41.282Z,99751.22
2022-09-30T04:14:42.738Z,99754.13
2022-09-30T04:17:44.118Z,99757.88
2022-09-30T04:20:45.526Z,99769.75
2022-09-30T04:23:47.012Z,99767.31
2022-09-30T04:26:48.866Z,99766.69
2022-09-30T04:29:50.275Z,99765.97
2022-09-30T04:32:51.664Z,99773.31
2022-09-30T04:35:57.073Z,99772.75
2022-09-30T04:38:58.505Z,99782.50
2022-09-30T04:41:59.882Z,99795.81
2022-09-30T04:45:01.733Z,99804.56
2022-09-30T04:48:03.157Z,99815.09
2022-09-30T04:51:04.683Z,99809.84
2022-09-30T04:54:06.066Z,99814.06
2022-09-30T04:57:07.436Z,99819.38
2022-09-30T05:00:10.012Z,99814.34
2022-09-30T05:03:11.442Z,99814.22
2022-09-30T05:06:13.352Z,99812.66
2022-09-30T05:09:14.843Z,99807.25
2022-09-30T05:12:16.284Z,99811.59
2022-09-30T05:15:17.884Z,99815.88
2022-09-30T05:18:20.509Z,99817.66
2022-09-30T05:21:22.049Z,99824.63
2022-09-30T05:24:23.528Z,99826.34
2022-09-30T05:27:25.035Z,99834.25
2022-09-30T05:30:26.469Z,99839.41
2022-09-30T05:33:29.430Z,99841.22
2022-09-30T05:36:30.873Z,99846.53
2022-09-30T05:39:32.466Z,99853.81
2022-09-30T05:42:36.170Z,99855.09
2022-09-30T05:45:38.408Z,99861.44
2022-09-30T05:48:40.406Z,99866.31
2022-09-30T05:51:42.104Z,99866.41
2022-09-30T05:54:43.472Z,99866.94
2022-09-30T05:57:48.942Z,99879.47
2022-09-30T06:00:50.640Z,99885.31
2022-09-30T06:03:52.069Z,99889.50
2022-09-30T06:06:53.525Z,99890.13
2022-09-30T06:09:55.040Z,99896.50
2022-09-30T06:12:59.028Z,99892.78
2022-09-30T06:16:02.027Z,99900.28
2022-09-30T06:19:03.525Z,99900.88
2022-09-30T06:22:04.903Z,99907.63
2022-09-30T06:25:07.139Z,99914.44
2022-09-30T06:28:08.522Z,99926.16
2022-09-30T06:31:11.193Z,99928.16
2022-09-30T06:34:13.662Z,99937.03
2022-09-30T06:37:15.974Z,99934.72
2022-09-30T06:40:18.062Z,99934.84
2022-09-30T06:43:20.800Z,99944.66
2022-09-30T06:46:27.479Z,99956.09
2022-09-30T06:49:44.699Z,99960.28
2022-09-30T06:52:49.169Z,99955.53
2022-09-30T06:55:56.323Z,99958.31
2022-09-30T06:58:57.740Z,99967.59
2022-09-30T07:01:59.193Z,99957.88
2022-09-30T07:05:03.509Z,99945.78
2022-09-30T07:08:05.802Z,99951.75
2022-09-30T07:11:14.521Z,99954.88
2022-09-30T07:14:15.939Z,99953.16
2022-09-30T07:17:17.392Z,99955.75
2022-09-30T07:20:19.199Z,99965.50
2022-09-30T07:23:26.406Z,99960.25
2022-09-30T07:26:28.836Z,99960.94
2022-09-30T07:29:40.385Z,99971.34
2022-09-30T07:32:53.425Z,99971.25
2022-09-30T07:36:00.383Z,99980.69
2022-09-30T07:39:07.085Z,99974.78
2022-09-30T07:42:08.765Z,99976.66
2022-09-30T07:45:10.880Z,99988.25
2022-09-30T07:48:32.237Z,99983.84
2022-09-30T07:51:40.065Z,99990.81
2022-09-30T07:54:46.660Z,99989.97
2022-09-30T07:57:51.114Z,100010.19
2022-09-30T08:00:52.511Z,100014.78
2022-09-30T08:03:56.546Z,100016.00
2022-09-30T08:07:00.284Z,100013.25
2022-09-30T08:10:01.686Z,100018.88
2022-09-30T08:13:05.702Z,100017.16
2022-09-30T08:16:08.544Z,100020.00
2022-09-30T08:19:16.131Z,100022.81
2022-09-30T08:22:17.623Z,100020.78
2022-09-30T08:25:19.016Z,100017.78
2022-09-30T08:28:20.388Z,100023.00
2022-09-30T08:31:23.800Z,100028.06
2022-09-30T08:34:25.539Z,100033.94
2022-09-30T08:37:27.039Z,100029.78
2022-09-30T08:40:31.808Z,100022.56
2022-09-30T08:43:45.776Z,100030.44
2022-09-30T08:46:58.627Z,100038.72
2022-09-30T08:50:06.267Z,100041.91
2022-09-30T08:53:11.946Z,100050.47
2022-09-30T08:56:24.419Z,100051.06
2022-09-30T08:59:46.440Z,100054.22
2022-09-30T09:02:59.397Z,100055.22
2022-09-30T09:06:29.618Z,100059.47
2022-09-30T09:09:48.078Z,100059.91
2022-09-30T09:12:49.395Z,100059.78
2022-09-30T09:16:30.102Z,100055.34
2022-09-30T09:19:42.166Z,100053.41
2022-09-30T09:22:46.234Z,100059.56
2022-09-30T09:25:50.794Z,100050.59
2022-09-30T09:29:21.734Z,100049.09
2022-09-30T09:32:26.216Z,100048.63
2022-09-30T09:35:40.212Z,100051.63
2022-09-30T09:38:41.667Z,100053.66
2022-09-30T09:42:23.953Z,100056.94
2022-09-30T09:45:36.221Z,100047.63
2022-09-30T09:48:38.022Z,100046.22
2022-09-30T09:51:53.277Z,100041.34
2022-09-30T09:54:58.473Z,100028.97
2022-09-30T09:58:14.883Z,100032.97
2022-09-30T10:01:42.528Z,100028.16
2022-09-30T10:04:50.970Z,100036.94
2022-09-30T10:08:12.520Z,100042.31
2022-09-30T10:11:24.552Z,100040.50
2022-09-30T10:14:25.998Z,100046.53
2022-09-30T10:17:33.801Z,100045.56
2022-09-30T10:20:36.948Z,100051.88
2022-09-30T10:23:40.224Z,100049.56
2022-09-30T10:26:48.528Z,100050.72
2022-09-30T10:29:50.840Z,100044.50
2022-09-30T10:32:52.621Z,100043.56
2022-09-30T10:36:04.014Z,100038.69
2022-09-30T10:39:26.882Z,100037.31
2022-09-30T10:42:31.623Z,100034.16
2022-09-30T10:45:38.561Z,100033.88
2022-09-30T10:48:41.211Z,100037.50
2022-09-30T10:51:45.957Z,100039.91
2022-09-30T10:54:53.855Z,100039.19
2022-09-30T10:58:01.087Z,100046.38
2022-09-30T11:01:15.165Z,100043.28
2022-09-30T11:04:28.057Z,100044.66
2022-09-30T11:07:41.011Z,100033.63
2022-09-30T11:10:47.117Z,100034.34
2022-09-30T11:13:56.896Z,100037.31
2022-09-30T11:17:18.105Z,100039.03
2022-09-30T11:20:29.816Z,100042.75
2022-09-30T11:23:38.438Z,100039.41
2022-09-30T11:27:03.733Z,100033.44
2022-09-30T11:30:31.473Z,100038.53
2022-09-30T11:33:53.335Z,100037.19
2022-09-30T11:36:54.710Z,100040.09
2022-09-30T11:40:38.204Z,100040.66
2022-09-30T11:44:01.401Z,100036.47
2022-09-30T11:47:30.353Z,100040.72
2022-09-30T11:50:56.827Z,100042.22
2022-09-30T11:54:23.408Z,100034.88
2022-09-30T11:57:35.944Z,100031.59
2022-09-30T12:00:45.464Z,100029.44
2022-09-30T12:04:03.116Z,100022.56
2022-09-30T12:07:15.117Z,100029.75
2022-09-30T12:10:21.522Z,100022.44
2022-09-30T12:13:37.090Z,100026.19
2022-09-30T12:16:39.569Z,100018.97
2022-09-30T12:19:47.389Z,100026.25
2022-09-30T12:22:51.570Z,100028.78
2022-09-30T12:25:59.238Z,100038.50
2022-09-30T12:29:26.949Z,100035.03
2022-09-30T12:33:05.907Z,100040.38
2022-09-30T12:36:30.469Z,100045.56
2022-09-30T12:39:44.358Z,100037.88
2022-09-30T12:43:23.720Z,100043.16
2022-09-30T12:46:59.799Z,100035.81
2022-09-30T12:50:06.067Z,100045.84
2022-09-30T12:53:23.992Z,100046.88
2022-09-30T12:56:28.830Z,100046.22
2022-09-30T12:59:34.445Z,100051.91
2022-09-30T13:02:42.404Z,100045.88
2022-09-30T13:05:52.741Z,100036.94
2022-09-30T13:08:57.125Z,100042.16
2022-09-30T13:11:58.451Z,100045.38
2022-09-30T13:15:42.191Z,100042.13
2022-09-30T13:18:44.997Z,100045.09
2022-09-30T13:21:46.964Z,100045.41
2022-09-30T13:24:57.726Z,100049.91
2022-09-30T13:28:14.365Z,100042.50
2022-09-30T13:31:19.713Z,100045.91
2022-09-30T13:34:32.825Z,100044.88
2022-09-30T13:37:37.957Z,100036.63
2022-09-30T13:41:02.691Z,100053.06
2022-09-30T13:44:23.917Z,100047.84
2022-09-30T13:47:35.121Z,100046.47
2022-09-30T13:50:52.761Z,100051.38
2022-09-30T13:53:58.373Z,100048.38
2022-09-30T13:57:04.973Z,100033.03
2022-09-30T14:00:12.848Z,100037.06
2022-09-30T14:04:06.339Z,100040.03
2022-09-30T14:07:26.269Z,100046.84
2022-09-30T14:10:57.124Z,100046.22
2022-09-30T14:14:13.334Z,100048.34
2022-09-30T14:17:36.789Z,100052.81
2022-09-30T14:21:01.881Z,100040.97
2022-09-30T14:24:10.801Z,100037.53
2022-09-30T14:27:23.637Z,100034.66
2022-09-30T14:30:26.542Z,100035.13
2022-09-30T14:33:28.373Z,100034.38
2022-09-30T14:36:30.122Z,100023.81
2022-09-30T14:39:32.858Z,100021.59
2022-09-30T14:42:38.672Z,100029.09
2022-09-30T14:45:44.643Z,100021.69
2022-09-30T14:48:48.420Z,100024.88
2022-09-30T14:51:50.029Z,100020.31
2022-09-30T14:54:51.458Z,100027.03
2022-09-30T14:57:55.729Z,100029.81
2022-09-30T15:00:58.020Z,100036.22
2022-09-30T15:04:04.858Z,100024.81
2022-09-30T15:07:11.860Z,100025.25
2022-09-30T15:10:22.965Z,100027.25
2022-09-30T15:13:28.120Z,100021.94
2022-09-30T15:16:31.639Z,100033.25
2022-09-30T15:19:42.077Z,100024.72
2022-09-30T15:22:43.982Z,100025.75
2022-09-30T15:25:45.943Z,100026.56
2022-09-30T15:28:47.918Z,100028.69
2022-09-30T15:31:58.309Z,100020.28
2022-09-30T15:35:08.321Z,100021.22
2022-09-30T15:38:20.962Z,100024.91
2022-09-30T15:41:22.461Z,100024.03
2022-09-30T15:49:38.146Z,100027.13
2022-09-30T15:52:40.379Z,100019.47
2022-09-30T15:55:49.949Z,100012.31
2022-09-30T15:58:55.738Z,100014.38
2022-09-30T16:01:57.906Z,100015.25
2022-09-30T16:05:05.251Z,100021.97
2022-09-30T16:08:10.390Z,100012.47
2022-09-30T16:11:31.066Z,100013.75
2022-09-30T16:14:40.058Z,100015.00
2022-09-30T16:17:49.896Z,100022.19
2022-09-30T16:21:03.148Z,100014.41
2022-09-30T16:24:04.721Z,100025.25
2022-09-30T16:27:29.800Z,100020.66
2022-09-30T16:30:32.189Z,100026.38
2022-09-30T16:33:38.099Z,100021.44
2022-09-30T16:36:39.510Z,100030.03
2022-09-30T16:39:41.100Z,100021.59
2022-09-30T16:42:42.682Z,100024.16
2022-09-30T16:45:44.244Z,100022.94
2022-09-30T16:48:45.656Z,100025.06
2022-09-30T16:51:47.095Z,100024.66
2022-09-30T16:54:48.558Z,100020.50
2022-09-30T16:57:50.255Z,100031.63
2022-09-30T17:00:52.276Z,100026.88
2022-09-30T17:03:55.827Z,100032.50
2022-09-30T17:06:58.234Z,100033.44
2022-09-30T17:09:59.633Z,100037.31
2022-09-30T17:13:02.204Z,100044.06
2022-09-30T17:16:04.304Z,100043.59
2022-09-30T17:19:05.756Z,100042.16
2022-09-30T17:22:07.136Z,100043.66
2022-09-30T17:25:09.743Z,100056.34
2022-09-30T17:28:13.263Z,100051.78
2022-09-30T17:31:15.018Z,100055.72
2022-09-30T17:34:16.632Z,100050.06
2022-09-30T17:37:18.857Z,100067.94
2022-09-30T17:40:39.209Z,100064.81
2022-09-30T17:43:43.076Z,100063.88
2022-09-30T17:46:46.682Z,100071.91
2022-09-30T17:49:48.239Z,100075.69
2022-09-30T17:52:49.672Z,100083.06
2022-09-30T17:56:02.157Z,100092.75
2022-09-30T17:59:03.593Z,100092.63
2022-09-30T18:02:05.406Z,100094.69
2022-09-30T18:05:07.415Z,100106.50
2022-09-30T18:08:11.993Z,100093.81
2022-09-30T18:11:19.844Z,100095.03
2022-09-30T18:14:21.230Z,100092.25
2022-09-30T18:17:23.622Z,100098.19
2022-09-30T18:20:25.697Z,100093.75
2022-09-30T18:23:27.223Z,100110.78
2022-09-30T18:26:33.391Z,100118.41
2022-09-30T18:29:37.230Z,100116.47
2022-09-30T18:32:39.616Z,100127.94
2022-09-30T18:35:41.998Z,100134.38
2022-09-30T18:38:43.812Z,100146.25
2022-09-30T18:41:45.990Z,100147.97
2022-09-30T18:44:48.719Z,100145.31
2022-09-30T18:47:55.396Z,100155.75
2022-09-30T18:51:04.931Z,100154.81
2022-09-30T18:54:06.543Z,100156.84
2022-09-30T18:57:08.106Z,100158.06
2022-09-30T19:00:11.137Z,100158.22
2022-09-30T19:03:16.029Z,100154.78
2022-09-30T19:06:18.816Z,100145.28
2022-09-30T19:09:20.378Z,100139.13
2022-09-30T19:12:22.370Z,100126.19
2022-09-30T19:15:23.921Z,100124.09
2022-09-30T19:18:25.302Z,100113.91
2022-09-30T19:21:27.173Z,100103.50
2022-09-30T19:24:28.714Z,100105.34
2022-09-30T19:27:30.255Z,100101.09
2022-09-30T19:30:31.794Z,100113.47
2022-09-30T19:33:35.199Z,100123.09
2022-09-30T19:36:50.319Z,100123.25
2022-09-30T19:39:53.181Z,100127.00
2022-09-30T19:42:54.566Z,100132.38
2022-09-30T19:46:01.375Z,100129.72
2022-09-30T19:49:02.846Z,100127.25
2022-09-30T19:52:12.131Z,100121.66
2022-09-30T19:55:17.110Z,100118.38
2022-09-30T19:58:18.719Z,100117.75
2022-09-30T20:01:22.305Z,100118.81
2022-09-30T20:04:24.601Z,100126.09
2022-09-30T20:07:28.210Z,100122.66
2022-09-30T20:10:29.591Z,100124.50
2022-09-30T20:13:31.242Z,100126.50
2022-09-30T20:16:32.729Z,100123.38
2022-09-30T20:19:34.190Z,100127.22
2022-09-30T20:22:35.780Z,100131.78
2022-09-30T20:25:38.269Z,100125.53
2022-09-30T20:28:40.175Z,100135.25
2022-09-30T20:31:42.889Z,100138.91
2022-09-30T20:34:45.389Z,100147.22
2022-09-30T20:37:46.851Z,100155.72
2022-09-30T20:40:56.484Z,100154.59
2022-09-30T20:43:58.884Z,100148.88
2022-09-30T20:47:00.913Z,100159.34
2022-09-30T20:50:02.307Z,100155.09
2022-09-30T20:53:07.338Z,100160.59
2022-09-30T20:56:11.772Z,100154.75
2022-09-30T20:59:13.688Z,100162.84
2022-09-30T21:02:15.332Z,100162.88
2022-09-30T21:05:16.741Z,100168.16
2022-09-30T21:08:18.378Z,100179.00
2022-09-30T21:11:21.274Z,100186.91
2022-09-30T21:14:22.657Z,100184.44
2022-09-30T21:17:24.093Z,100193.31
2022-09-30T21:20:25.517Z,100199.59
2022-09-30T21:23:31.311Z,100194.31
2022-09-30T21:26:32.696Z,100193.41
2022-09-30T21:29:34.101Z,100196.41
2022-09-30T21:32:35.499Z,100197.88
2022-09-30T21:35:36.880Z,100189.97
2022-09-30T21:38:38.574Z,100185.34
2022-09-30T21:41:40.639Z,100196.16
2022-09-30T21:44:42.245Z,100189.28
2022-09-30T21:47:43.614Z,100185.22
2022-09-30T21:50:45.006Z,100176.50
2022-09-30T21:53:46.774Z,100175.69
2022-09-30T21:56:48.540Z,100173.94
2022-09-30T21:59:50.638Z,100180.34
2022-09-30T22:02:52.058Z,100171.63
2022-09-30T22:05:54.575Z,100178.72
2022-09-30T22:08:57.070Z,100169.41
2022-09-30T22:11:58.652Z,100173.00
2022-09-30T22:15:00.046Z,100162.41
2022-09-30T22:18:01.505Z,100164.13
2022-09-30T22:21:09.162Z,100167.63
2022-09-30T22:24:10.623Z,100171.09
2022-09-30T22:27:14.080Z,100175.25
2022-09-30T22:30:15.628Z,100164.59
2022-09-30T22:33:35.700Z,100166.34
2022-09-30T22:36:56.561Z,100157.59
2022-09-30T22:40:00.861Z,100157.56
2022-09-30T22:43:04.205Z,100164.59
2022-09-30T22:46:08.023Z,100167.69
2022-09-30T22:49:10.262Z,100166.44
2022-09-30T22:52:12.830Z,100167.44
2022-09-30T22:55:15.006Z,100167.44
2022-09-30T22:58:16.448Z,100163.88
2022-09-30T23:01:17.844Z,100169.41
2022-09-30T23:04:19.510Z,100160.81
2022-09-30T23:07:20.948Z,100167.78
2022-09-30T23:10:22.341Z,100159.09
2022-09-30T23:13:23.744Z,100159.28
2022-09-30T23:16:25.230Z,100160.47
2022-09-30T23:19:26.663Z,100158.19
2022-09-30T23:22:28.058Z,100163.69
2022-09-30T23:25:29.436Z,100157.91
2022-09-30T23:28:31.800Z,100156.28
2022-09-30T23:31:33.904Z,100155.59
2022-09-30T23:34:35.516Z,100159.91
2022-09-30T23:37:36.897Z,100155.56
2022-09-30T23:40:48.583Z,100151.03
2022-09-30T23:43:49.954Z,100146.50
2022-09-30T23:47:09.945Z,100153.34
2022-09-30T23:50:12.022Z,100151.44
2022-09-30T23:53:13.433Z,100145.75
2022-09-30T23:56:17.586Z,100141.91
2022-09-30T23:59:19.263Z,100147.78
